Ana Sayfa
METAR-TAF:

METAR-TAF

Havaalanları :

Harbin Taiping Uluslararası Havalimanı

Harbin, Çin

Enlem: 45-45N, Boylam: 126-46E, yükseklik: 143 m

Güncel hava durumu gözlemi

Rapor saat 14:00 UTC de 42 dakika önce yapıldı.
Rüzgar güney/güneybatıdan 8 kt
Sıcaklık 27°C
Nem 89%
Basınç 1005 hPa
Görüş mesafesi: 4000 m
Pus

METAR: ZYHB 221400Z 20004MPS 4000 BR NSC 27/25 Q1005 NOSIG

Saat: 22:42 (14:42 UTC)

Tahmin

Rapor saat 09:01 UTC de 5 saat ve 41 dakika önce yapıldı.
Ayın 22'si saat 12 UTC'den ayın 23'si saat 12 UTC'ye kadar geçerli Tahmin
Rüzgar güney/güneybatıdan 8 kt
Görüş mesafesi: 6000 m
3300 ft yükseklikte parçalı bulutlu

TAF: ZYHB 220901Z 2212/2312 21004MPS 6000 SCT033 TX33/2306Z TN23/2221Z

4.000'den fazla havaalanı için hava durumu gözlemleri ve tahminleri (METAR ve TAF raporları).

Kullanılabilir istasyonlar harita üzerinde sarı ve kırmızı noktalarla gösterilir.

İstasyonun adını görmek için fareyi noktanın üzerinde gezdirin.

Sonrasında hava gözlem ve tahminlerini görmek için tıklayın.

Haritayı değiştirmek için: yaklaştırmak için siyah artı işaretli yeşil düğmeye ve uzaklaştırmak için de eksi işaretli düğmeye hızla tıklayın; bitişik haritalar için yeşil okları kullanın.


METAR-TAF: